createdAt,value
2019-05-20T00:00:08.732Z,32.77
2019-05-20T00:02:37.559Z,30.87
2019-05-20T00:05:09.025Z,31.17
2019-05-20T00:07:37.779Z,30.77
2019-05-20T00:10:08.047Z,31.43
2019-05-20T00:12:36.704Z,34.80
2019-05-20T00:15:06.562Z,36.20
2019-05-20T00:17:37.188Z,34.30
2019-05-20T00:20:08.151Z,30.33
2019-05-20T00:22:36.855Z,35.27
2019-05-20T00:25:06.990Z,32.90
2019-05-20T00:27:36.050Z,39.10
2019-05-20T00:30:06.304Z,39.03
2019-05-20T00:32:41.225Z,31.50
2019-05-20T00:35:07.746Z,35.20
2019-05-20T00:37:36.446Z,34.23
2019-05-20T00:40:07.499Z,37.83
2019-05-20T00:42:39.008Z,34.80
2019-05-20T00:45:08.294Z,36.53
2019-05-20T00:47:36.869Z,31.83
2019-05-20T00:50:06.809Z,29.77
2019-05-20T00:52:38.087Z,37.80
2019-05-20T00:55:09.051Z,36.57
2019-05-20T00:57:37.766Z,31.00
2019-05-20T01:00:08.129Z,39.27
2019-05-20T01:02:36.795Z,35.37
2019-05-20T01:05:06.161Z,36.00
2019-05-20T01:07:35.233Z,36.20
2019-05-20T01:10:05.533Z,31.97
2019-05-20T01:12:35.881Z,31.10
2019-05-20T01:15:06.321Z,34.93
2019-05-20T01:17:35.072Z,37.07
2019-05-20T01:20:07.238Z,35.20
2019-05-20T01:22:37.442Z,36.93
2019-05-20T01:25:09.192Z,35.60
2019-05-20T01:27:37.887Z,31.70
2019-05-20T01:30:11.213Z,36.13
2019-05-20T01:32:39.915Z,32.70
2019-05-20T01:35:09.383Z,36.00
2019-05-20T01:37:38.142Z,35.60
2019-05-20T01:40:07.482Z,39.40
2019-05-20T01:42:39.001Z,35.87
2019-05-20T01:45:08.135Z,29.67
2019-05-20T01:47:36.852Z,34.90
2019-05-20T01:50:09.128Z,34.87
2019-05-20T01:52:37.880Z,37.97
2019-05-20T01:55:08.162Z,30.47
2019-05-20T01:57:37.209Z,36.53
2019-05-20T02:00:07.997Z,35.07
2019-05-20T02:02:36.745Z,33.63
2019-05-20T02:05:08.213Z,33.43
2019-05-20T02:07:36.962Z,34.33
2019-05-20T02:10:07.436Z,37.50
2019-05-20T02:12:37.649Z,37.13
2019-05-20T02:15:19.884Z,36.07
2019-05-20T02:17:48.617Z,38.03
2019-05-20T02:20:17.328Z,43.70
2019-05-20T02:22:46.038Z,39.63
2019-05-20T02:25:15.023Z,41.00
2019-05-20T02:27:43.776Z,38.07
2019-05-20T02:30:12.763Z,38.40
2019-05-20T02:32:41.432Z,37.67
2019-05-20T02:35:10.245Z,34.53
2019-05-20T02:37:38.952Z,40.50
2019-05-20T02:40:08.603Z,37.40
2019-05-20T02:42:37.475Z,34.80
2019-05-20T02:45:09.614Z,42.00
2019-05-20T02:47:38.331Z,37.67
2019-05-20T02:50:07.358Z,41.33
2019-05-20T02:52:37.674Z,40.20
2019-05-20T02:55:09.403Z,38.90
2019-05-20T02:57:38.017Z,42.10
2019-05-20T03:00:08.051Z,41.77
2019-05-20T03:02:36.725Z,37.13
2019-05-20T03:05:07.104Z,37.17
2019-05-20T03:07:35.857Z,36.03
2019-05-20T03:10:06.547Z,32.13
2019-05-20T03:12:36.671Z,38.70
2019-05-20T03:15:06.514Z,44.43
2019-05-20T03:17:36.688Z,39.03
2019-05-20T03:20:06.378Z,38.73
2019-05-20T03:22:35.053Z,38.80
2019-05-20T03:25:05.403Z,36.13
2019-05-20T03:27:35.748Z,36.77
2019-05-20T03:30:05.811Z,38.20
2019-05-20T03:32:37.722Z,37.63
2019-05-20T03:35:08.186Z,38.57
2019-05-20T03:37:37.198Z,37.10
2019-05-20T03:40:07.463Z,38.13
2019-05-20T03:42:39.154Z,40.30
2019-05-20T03:45:08.210Z,36.60
2019-05-20T03:47:36.937Z,37.43
2019-05-20T03:50:08.906Z,34.07
2019-05-20T03:52:37.648Z,39.13
2019-05-20T03:55:08.048Z,37.40
2019-05-20T03:57:36.766Z,34.80
2019-05-20T04:00:07.437Z,38.63
2019-05-20T04:02:39.192Z,44.80
2019-05-20T04:05:07.908Z,37.80
2019-05-20T04:07:36.627Z,40.50
2019-05-20T04:10:06.993Z,36.00
2019-05-20T04:12:35.702Z,40.07
2019-05-20T04:15:05.724Z,34.90
2019-05-20T04:17:34.783Z,31.43
2019-05-20T04:20:06.463Z,39.43
2019-05-20T04:22:36.674Z,34.37
2019-05-20T04:25:06.595Z,34.53
2019-05-20T04:27:36.785Z,39.80
2019-05-20T04:30:07.250Z,37.63
2019-05-20T04:32:37.420Z,34.10
2019-05-20T04:35:21.419Z,40.10
2019-05-20T04:37:39.451Z,37.60
2019-05-20T04:40:08.346Z,38.00
2019-05-20T04:42:37.116Z,36.10
2019-05-20T04:45:06.934Z,34.90
2019-05-20T04:47:35.648Z,35.50
2019-05-20T04:50:08.596Z,39.27
2019-05-20T04:52:37.688Z,34.50
2019-05-20T04:55:06.611Z,34.07
2019-05-20T04:57:37.070Z,33.60
2019-05-20T05:00:09.679Z,32.63
2019-05-20T05:02:38.404Z,33.03
2019-05-20T05:05:08.000Z,29.00
2019-05-20T05:07:36.758Z,31.90
2019-05-20T05:10:08.264Z,24.90
2019-05-20T05:12:37.154Z,31.10
2019-05-20T05:15:10.609Z,30.30
2019-05-20T05:17:39.346Z,37.67
2019-05-20T05:20:17.507Z,29.03
2019-05-20T05:22:38.702Z,27.23
2019-05-20T05:25:07.752Z,30.57
2019-05-20T05:27:36.712Z,26.83
2019-05-20T05:30:08.285Z,29.73
2019-05-20T05:32:43.996Z,27.60
2019-05-20T05:35:15.079Z,26.00
2019-05-20T05:37:44.016Z,28.50
2019-05-20T05:40:12.862Z,28.63
2019-05-20T05:42:41.538Z,25.53
2019-05-20T05:45:10.966Z,25.20
2019-05-20T05:47:39.646Z,27.10
2019-05-20T05:50:09.069Z,22.03
2019-05-20T05:52:38.053Z,24.80
2019-05-20T05:55:06.987Z,24.47
2019-05-20T05:57:35.665Z,22.17
2019-05-20T06:00:06.639Z,22.67
2019-05-20T06:02:36.741Z,23.47
2019-05-20T06:05:06.379Z,24.93
2019-05-20T06:07:35.029Z,22.70
2019-05-20T06:10:05.248Z,18.60
2019-05-20T06:12:33.995Z,20.70
2019-05-20T06:15:02.803Z,18.97
2019-05-20T06:17:32.514Z,17.10
2019-05-20T06:20:01.187Z,22.83
2019-05-20T06:22:29.847Z,16.67
2019-05-20T06:24:58.497Z,18.10
2019-05-20T06:27:27.145Z,20.30
2019-05-20T06:29:55.807Z,18.97
2019-05-20T06:32:24.850Z,19.60
2019-05-20T06:34:53.541Z,19.53
2019-05-20T06:37:23.900Z,16.57
2019-05-20T06:39:52.622Z,22.23
2019-05-20T06:42:21.339Z,17.87
2019-05-20T06:44:52.910Z,18.10
2019-05-20T06:47:20.507Z,19.03
2019-05-20T06:49:49.329Z,24.07
2019-05-20T06:52:33.261Z,17.03
2019-05-20T06:54:48.608Z,17.80
2019-05-20T06:57:17.260Z,16.50
2019-05-20T06:59:46.037Z,18.87
2019-05-20T07:02:14.698Z,14.53
2019-05-20T07:04:43.675Z,17.80
2019-05-20T07:07:20.575Z,18.47
2019-05-20T07:09:42.848Z,19.40
2019-05-20T07:12:11.563Z,14.60
2019-05-20T07:14:40.290Z,12.93
2019-05-20T07:17:09.005Z,17.90
2019-05-20T07:19:37.834Z,14.20
2019-05-20T07:22:06.548Z,12.13
2019-05-20T07:24:36.702Z,11.93
2019-05-20T07:27:08.504Z,14.67
2019-05-20T07:29:37.324Z,12.90
2019-05-20T07:32:07.496Z,13.67
2019-05-20T07:34:38.842Z,13.13
2019-05-20T07:37:07.608Z,15.27
2019-05-20T07:39:36.423Z,14.50
2019-05-20T07:42:06.602Z,15.80
2019-05-20T07:44:38.214Z,17.40
2019-05-20T07:47:06.869Z,12.03
2019-05-20T07:49:36.002Z,14.70
2019-05-20T07:52:05.517Z,13.10
2019-05-20T07:54:37.359Z,12.50
2019-05-20T07:57:09.052Z,14.30
2019-05-20T07:59:40.059Z,14.97
2019-05-20T08:02:09.411Z,14.53
2019-05-20T08:04:38.099Z,15.73
2019-05-20T08:07:26.247Z,12.43
2019-05-20T08:09:44.639Z,14.60
2019-05-20T08:12:07.700Z,11.40
2019-05-20T08:14:36.818Z,18.23
2019-05-20T08:17:08.480Z,11.13
2019-05-20T08:19:37.196Z,9.57
2019-05-20T08:22:07.760Z,12.27
2019-05-20T08:24:36.472Z,10.07
2019-05-20T08:27:06.729Z,11.90
2019-05-20T08:29:38.538Z,11.47
2019-05-20T08:32:07.236Z,9.80
2019-05-20T08:34:38.590Z,8.20
2019-05-20T08:37:08.007Z,8.13
2019-05-20T08:39:37.271Z,9.40
2019-05-20T08:42:07.636Z,10.10
2019-05-20T08:44:36.523Z,10.63
2019-05-20T08:47:06.712Z,8.93
2019-05-20T08:49:36.796Z,10.03
2019-05-20T08:52:08.667Z,8.73
2019-05-20T08:54:40.231Z,7.87
2019-05-20T08:57:07.735Z,8.97
2019-05-20T08:59:36.446Z,10.53
2019-05-20T09:02:06.603Z,9.70
2019-05-20T09:04:35.466Z,8.13
2019-05-20T09:07:04.543Z,7.90
2019-05-20T09:09:33.434Z,9.57
2019-05-20T09:12:02.205Z,8.27
2019-05-20T09:14:31.315Z,9.23
2019-05-20T09:16:59.894Z,8.00
2019-05-20T09:19:28.598Z,6.60
2019-05-20T09:21:57.422Z,8.60
2019-05-20T09:24:26.145Z,7.50
2019-05-20T09:26:54.857Z,6.07
2019-05-20T09:29:23.532Z,8.27
2019-05-20T09:31:52.500Z,7.43
2019-05-20T09:34:21.221Z,7.50
2019-05-20T09:36:50.032Z,6.87
2019-05-20T09:39:18.731Z,6.87
2019-05-20T09:41:47.553Z,6.40
2019-05-20T09:44:16.259Z,7.33
2019-05-20T09:46:44.974Z,5.43
2019-05-20T09:49:13.685Z,7.17
2019-05-20T09:51:42.393Z,6.80
2019-05-20T09:54:11.104Z,7.53
2019-05-20T09:56:39.818Z,6.10
2019-05-20T09:59:08.531Z,5.90
2019-05-20T10:01:39.970Z,5.73
2019-05-20T10:04:07.694Z,6.17
2019-05-20T10:06:36.507Z,5.70
2019-05-20T10:09:06.549Z,8.40
2019-05-20T10:11:37.021Z,6.77
2019-05-20T10:14:05.750Z,5.37
2019-05-20T10:16:34.399Z,5.13
2019-05-20T10:19:03.183Z,6.70
2019-05-20T10:21:31.888Z,6.30
2019-05-20T10:24:01.050Z,5.60
2019-05-20T10:26:29.824Z,7.73
2019-05-20T10:28:58.483Z,7.60
2019-05-20T10:31:27.151Z,8.27
2019-05-20T10:33:55.790Z,7.20
2019-05-20T10:36:24.438Z,6.70
2019-05-20T10:38:58.556Z,9.67
2019-05-20T10:41:23.613Z,6.97
2019-05-20T10:43:52.267Z,7.90
2019-05-20T10:46:21.038Z,8.33
2019-05-20T10:48:50.224Z,9.03
2019-05-20T10:51:18.933Z,9.33
2019-05-20T10:53:47.749Z,7.77
2019-05-20T10:56:16.459Z,9.43
2019-05-20T10:58:45.172Z,8.07
2019-05-20T11:01:13.886Z,7.90
2019-05-20T11:03:42.902Z,12.50
2019-05-20T11:06:11.604Z,8.23
2019-05-20T11:08:40.428Z,9.37
2019-05-20T11:11:13.928Z,9.23
2019-05-20T11:13:39.705Z,9.00
2019-05-20T11:16:08.533Z,10.17
2019-05-20T11:18:37.266Z,9.10
2019-05-20T11:21:07.567Z,8.40
2019-05-20T11:23:37.484Z,10.83
2019-05-20T11:26:09.356Z,8.30
2019-05-20T11:28:38.517Z,7.90
2019-05-20T11:31:07.533Z,7.60
2019-05-20T11:33:39.326Z,6.43
2019-05-20T11:36:08.030Z,10.10
2019-05-20T11:38:36.856Z,8.97
2019-05-20T11:41:05.618Z,7.97
2019-05-20T11:43:34.482Z,5.80
2019-05-20T11:46:03.194Z,8.10
2019-05-20T11:48:32.008Z,7.03
2019-05-20T11:51:00.717Z,6.70
2019-05-20T11:53:29.533Z,5.97
2019-05-20T11:55:58.553Z,6.17
2019-05-20T11:58:27.262Z,8.93
2019-05-20T12:00:56.104Z,7.67
2019-05-20T12:03:25.225Z,8.00
2019-05-20T12:05:53.906Z,5.67
2019-05-20T12:08:22.672Z,8.30
2019-05-20T12:10:51.390Z,7.37
2019-05-20T12:13:20.096Z,6.17
2019-05-20T12:15:48.705Z,6.67
2019-05-20T12:18:17.452Z,7.67
2019-05-20T12:20:46.132Z,6.80
2019-05-20T12:23:14.844Z,11.10
2019-05-20T12:25:43.555Z,7.97
2019-05-20T12:28:12.268Z,8.70
2019-05-20T12:30:41.084Z,7.13
2019-05-20T12:33:18.431Z,11.40
2019-05-20T12:35:40.348Z,6.83
2019-05-20T12:38:09.267Z,8.43
2019-05-20T12:40:37.989Z,9.60
2019-05-20T12:43:06.701Z,9.10
2019-05-20T12:45:38.322Z,7.43
2019-05-20T12:48:07.110Z,9.90
2019-05-20T12:50:35.968Z,7.77
2019-05-20T12:53:07.741Z,15.30
2019-05-20T12:55:36.405Z,9.40
2019-05-20T12:58:06.609Z,9.20
2019-05-20T13:00:36.888Z,11.60
2019-05-20T13:03:08.560Z,10.57
2019-05-20T13:05:37.215Z,9.30
2019-05-20T13:08:07.457Z,14.23
2019-05-20T13:10:39.131Z,9.20
2019-05-20T13:13:08.170Z,8.70
2019-05-20T13:15:36.855Z,7.73
2019-05-20T13:18:08.960Z,8.67
2019-05-20T13:20:37.683Z,8.30
2019-05-20T13:23:09.184Z,9.50
2019-05-20T13:25:37.048Z,8.63
2019-05-20T13:28:05.759Z,7.90
2019-05-20T13:30:34.473Z,8.13
2019-05-20T13:33:03.309Z,8.70
2019-05-20T13:35:32.096Z,13.53
2019-05-20T13:38:00.805Z,9.23
2019-05-20T13:40:45.180Z,8.27
2019-05-20T13:42:59.975Z,9.40
2019-05-20T13:45:28.647Z,11.53
2019-05-20T13:47:57.401Z,11.23
2019-05-20T13:50:26.106Z,11.53
2019-05-20T13:52:54.826Z,23.90
2019-05-20T13:55:23.550Z,13.87
2019-05-20T13:57:52.278Z,15.30
2019-05-20T14:00:21.402Z,15.47
2019-05-20T14:02:50.521Z,18.33
2019-05-20T14:05:19.650Z,15.07
2019-05-20T14:07:48.372Z,18.30
2019-05-20T14:10:17.395Z,21.30
2019-05-20T14:12:46.614Z,16.90
2019-05-20T14:15:15.737Z,13.93
2019-05-20T14:17:44.458Z,16.60
2019-05-20T14:20:13.669Z,16.40
2019-05-20T14:22:43.099Z,20.13
2019-05-20T14:25:12.017Z,17.63
2019-05-20T14:27:41.036Z,20.53
2019-05-20T14:30:10.472Z,22.83
2019-05-20T14:32:39.183Z,28.20
2019-05-20T14:35:08.415Z,38.93
2019-05-20T14:37:37.133Z,41.27
2019-05-20T14:40:07.081Z,65.60
2019-05-20T14:42:35.849Z,64.23
2019-05-20T14:45:05.542Z,21.47
2019-05-20T14:47:36.216Z,18.57
2019-05-20T14:50:09.243Z,22.33
2019-05-20T14:52:37.966Z,24.13
2019-05-20T14:55:07.351Z,12.60
2019-05-20T14:57:37.486Z,12.67
2019-05-20T15:00:09.668Z,13.20
2019-05-20T15:02:38.426Z,7.93
2019-05-20T15:05:08.438Z,12.93
2019-05-20T15:07:37.192Z,7.50
2019-05-20T15:10:09.480Z,12.33
2019-05-20T15:12:38.154Z,29.97
2019-05-20T15:15:07.415Z,5.80
2019-05-20T15:17:37.987Z,4.80
2019-05-20T15:20:07.828Z,6.67
2019-05-20T15:22:36.642Z,5.37
2019-05-20T15:25:07.199Z,9.23
2019-05-20T15:27:37.358Z,12.57
2019-05-20T15:30:10.509Z,11.73
2019-05-20T15:32:39.170Z,10.47
2019-05-20T15:35:08.284Z,13.20
2019-05-20T15:37:37.132Z,12.90
2019-05-20T15:40:07.395Z,12.20
2019-05-20T15:42:38.997Z,14.03
2019-05-20T15:45:08.945Z,13.60
2019-05-20T15:47:37.658Z,15.33
2019-05-20T15:50:09.974Z,11.60
2019-05-20T15:52:38.198Z,13.57
2019-05-20T15:55:07.666Z,15.77
2019-05-20T15:57:36.355Z,13.83
2019-05-20T16:00:08.943Z,15.70
2019-05-20T16:02:37.870Z,15.63
2019-05-20T16:05:08.526Z,20.13
2019-05-20T16:07:37.349Z,13.87
2019-05-20T16:10:07.562Z,15.73
2019-05-20T16:12:39.013Z,18.93
2019-05-20T16:15:08.787Z,17.27
2019-05-20T16:17:37.546Z,20.50
2019-05-20T16:20:09.405Z,19.40
2019-05-20T16:22:38.050Z,20.57
2019-05-20T16:25:07.912Z,17.20
2019-05-20T16:27:36.722Z,13.53
2019-05-20T16:30:12.093Z,11.97
2019-05-20T16:32:40.707Z,10.77
2019-05-20T16:35:10.009Z,10.77
2019-05-20T16:37:38.843Z,9.40
2019-05-20T16:40:11.433Z,15.80
2019-05-20T16:42:40.671Z,10.70
2019-05-20T16:45:11.858Z,13.67
2019-05-20T16:47:40.452Z,11.10
2019-05-20T16:50:10.335Z,13.73
2019-05-20T16:52:39.025Z,10.70
2019-05-20T16:55:08.738Z,8.57
2019-05-20T16:57:37.593Z,9.90
2019-05-20T17:00:29.241Z,11.70
2019-05-20T17:02:40.093Z,9.20
2019-05-20T17:05:08.971Z,12.10
2019-05-20T17:07:37.918Z,13.87
2019-05-20T17:10:08.276Z,12.03
2019-05-20T17:12:37.134Z,13.83
2019-05-20T17:15:07.072Z,13.10
2019-05-20T17:17:35.787Z,12.93
2019-05-20T17:20:05.848Z,18.87
2019-05-20T17:22:35.164Z,16.53
2019-05-20T17:25:07.612Z,21.47
2019-05-20T17:27:39.768Z,16.40
2019-05-20T17:30:09.729Z,18.60
2019-05-20T17:32:38.414Z,18.17
2019-05-20T17:35:07.475Z,16.30
2019-05-20T17:37:39.866Z,18.43
2019-05-20T17:40:09.920Z,19.90
2019-05-20T17:42:39.934Z,18.00
2019-05-20T17:45:09.384Z,17.70
2019-05-20T17:47:38.204Z,23.43
2019-05-20T17:50:07.739Z,24.90
2019-05-20T17:52:36.656Z,22.67
2019-05-20T17:55:07.326Z,27.10
2019-05-20T17:57:37.994Z,26.03
2019-05-20T18:00:09.686Z,33.83
2019-05-20T18:02:38.601Z,24.47
2019-05-20T18:05:07.923Z,23.67
2019-05-20T18:07:36.643Z,21.37
2019-05-20T18:10:07.831Z,23.10
2019-05-20T18:12:36.547Z,21.23
2019-05-20T18:15:08.230Z,17.47
2019-05-20T18:17:36.936Z,23.43
2019-05-20T18:20:06.987Z,20.10
2019-05-20T18:22:35.713Z,21.93
2019-05-20T18:25:06.481Z,22.57
2019-05-20T18:27:36.639Z,20.00
2019-05-20T18:30:09.103Z,33.47
2019-05-20T18:32:38.650Z,21.50
2019-05-20T18:35:08.482Z,21.23
2019-05-20T18:37:37.158Z,20.97
2019-05-20T18:40:13.922Z,19.97
2019-05-20T18:42:37.861Z,20.57
2019-05-20T18:45:07.597Z,20.00
2019-05-20T18:47:39.296Z,18.90
2019-05-20T18:50:08.785Z,20.60
2019-05-20T18:52:37.797Z,22.07
2019-05-20T18:55:08.014Z,17.67
2019-05-20T18:57:36.746Z,18.03
2019-05-20T19:00:11.423Z,18.30
2019-05-20T19:02:40.122Z,22.43
2019-05-20T19:05:08.941Z,22.13
2019-05-20T19:07:38.077Z,22.47
2019-05-20T19:10:07.644Z,21.63
2019-05-20T19:12:39.146Z,21.40
2019-05-20T19:15:08.486Z,20.60
2019-05-20T19:17:37.941Z,21.23
2019-05-20T19:20:07.406Z,25.90
2019-05-20T19:22:38.071Z,19.83
2019-05-20T19:25:07.201Z,27.57
2019-05-20T19:27:39.122Z,19.37
2019-05-20T19:30:08.342Z,19.13
2019-05-20T19:32:37.125Z,17.57
2019-05-20T19:35:07.560Z,18.17
2019-05-20T19:37:39.281Z,20.33
2019-05-20T19:40:08.859Z,20.70
2019-05-20T19:42:38.083Z,24.43
2019-05-20T19:45:07.080Z,20.20
2019-05-20T19:47:35.872Z,27.40
2019-05-20T19:50:06.134Z,18.67
2019-05-20T19:52:34.952Z,24.50
2019-05-20T19:55:04.484Z,27.37
2019-05-20T19:57:33.207Z,26.73
2019-05-20T20:00:01.929Z,26.63
2019-05-20T20:02:30.648Z,25.90
2019-05-20T20:04:59.368Z,26.97
2019-05-20T20:07:28.867Z,28.50
2019-05-20T20:09:57.708Z,28.13
2019-05-20T20:12:26.422Z,32.60
2019-05-20T20:14:55.238Z,25.17
2019-05-20T20:17:23.958Z,32.30
2019-05-20T20:19:52.676Z,26.60
2019-05-20T20:22:21.385Z,31.97
2019-05-20T20:24:50.401Z,32.43
2019-05-20T20:27:19.121Z,27.50
2019-05-20T20:29:47.938Z,27.47
2019-05-20T20:32:16.656Z,36.03
2019-05-20T20:34:45.792Z,31.03
2019-05-20T20:37:14.489Z,27.47
2019-05-20T20:39:43.312Z,30.07
2019-05-20T20:42:12.978Z,27.63
2019-05-20T20:44:42.932Z,29.30
2019-05-20T20:47:12.226Z,27.80
2019-05-20T20:49:40.922Z,24.43
2019-05-20T20:52:09.851Z,24.60
2019-05-20T20:54:39.149Z,25.00
2019-05-20T20:57:09.001Z,24.63
2019-05-20T20:59:38.862Z,19.27
2019-05-20T21:02:07.962Z,25.27
2019-05-20T21:04:36.841Z,18.17
2019-05-20T21:07:27.298Z,29.83
2019-05-20T21:09:57.025Z,25.20
2019-05-20T21:12:27.288Z,24.57
2019-05-20T21:14:56.890Z,25.53
2019-05-20T21:17:26.934Z,24.90
2019-05-20T21:19:56.609Z,23.60
2019-05-20T21:22:25.486Z,23.00
2019-05-20T21:24:54.194Z,20.50
2019-05-20T21:27:23.010Z,27.77
2019-05-20T21:29:51.729Z,23.60
2019-05-20T21:32:20.431Z,22.50
2019-05-20T21:34:49.480Z,22.50
2019-05-20T21:37:18.271Z,25.17
2019-05-20T21:39:46.987Z,22.60
2019-05-20T21:42:15.699Z,20.90
2019-05-20T21:44:44.419Z,25.27
2019-05-20T21:47:13.463Z,27.70
2019-05-20T21:49:42.172Z,21.80
2019-05-20T21:52:10.893Z,25.03
2019-05-20T21:54:39.612Z,29.07
2019-05-20T21:57:08.421Z,34.13
2019-05-20T21:59:37.136Z,28.27
2019-05-20T22:02:06.281Z,27.37
2019-05-20T22:04:35.418Z,26.73
2019-05-20T22:07:05.983Z,25.93
2019-05-20T22:09:37.736Z,28.67
2019-05-20T22:12:06.589Z,29.77
2019-05-20T22:14:37.148Z,33.87
2019-05-20T22:17:06.178Z,28.63
2019-05-20T22:19:35.002Z,30.80
2019-05-20T22:22:17.648Z,31.87
2019-05-20T22:24:46.362Z,30.93
2019-05-20T22:27:15.071Z,34.10
2019-05-20T22:29:43.793Z,29.67
2019-05-20T22:32:12.619Z,44.40
2019-05-20T22:34:52.658Z,35.47
2019-05-20T22:37:11.809Z,32.57
2019-05-20T22:39:40.461Z,33.93
2019-05-20T22:42:09.247Z,30.87
2019-05-20T22:44:37.901Z,35.27
2019-05-20T22:47:06.584Z,35.77
2019-05-20T22:49:36.743Z,37.20
2019-05-20T22:52:08.443Z,31.13
2019-05-20T22:54:37.153Z,34.93
2019-05-20T22:57:05.867Z,34.43
2019-05-20T22:59:34.796Z,35.20
2019-05-20T23:02:06.085Z,31.13
2019-05-20T23:04:37.725Z,33.90
2019-05-20T23:07:06.691Z,32.10
2019-05-20T23:09:38.130Z,32.67
2019-05-20T23:12:06.891Z,32.50
2019-05-20T23:14:38.259Z,31.93
2019-05-20T23:17:06.975Z,38.50
2019-05-20T23:19:35.993Z,29.70
2019-05-20T23:22:08.908Z,32.30
2019-05-20T23:24:37.639Z,34.40
2019-05-20T23:27:06.414Z,33.13
2019-05-20T23:29:36.621Z,31.63
2019-05-20T23:32:08.418Z,29.27
2019-05-20T23:34:37.146Z,31.33
2019-05-20T23:37:07.160Z,31.70
2019-05-20T23:39:37.282Z,34.73
2019-05-20T23:42:07.439Z,34.20
2019-05-20T23:44:38.945Z,35.20
2019-05-20T23:47:07.662Z,30.67
2019-05-20T23:49:36.386Z,36.20
2019-05-20T23:52:06.945Z,36.97
2019-05-20T23:54:35.557Z,32.70
2019-05-20T23:57:04.685Z,39.60
2019-05-20T23:59:35.889Z,28.00
